sensor_id;sensor_type;location;lat;lon;timestamp;pressure;altitude;pressure_sealevel;temperature;humidity
78625;BME280;67944;0.000;0.000;2023-08-30T00:00:29;100031.13;;;24.75;44.87
78625;BME280;67944;0.000;0.000;2023-08-30T00:02:56;100020.69;;;24.73;44.25
78625;BME280;67944;0.000;0.000;2023-08-30T00:05:21;100019.88;;;24.73;44.77
78625;BME280;67944;0.000;0.000;2023-08-30T00:07:47;100027.88;;;24.73;45.13
78625;BME280;67944;0.000;0.000;2023-08-30T00:10:12;100018.25;;;24.72;45.08
78625;BME280;67944;0.000;0.000;2023-08-30T00:12:38;100014.19;;;24.69;44.86
78625;BME280;67944;0.000;0.000;2023-08-30T00:15:03;100009.66;;;24.70;45.06
78625;BME280;67944;0.000;0.000;2023-08-30T00:17:29;100015.00;;;24.70;44.35
78625;BME280;67944;0.000;0.000;2023-08-30T00:19:55;100008.84;;;24.69;44.18
78625;BME280;67944;0.000;0.000;2023-08-30T00:22:22;100016.84;;;24.69;44.25
78625;BME280;67944;0.000;0.000;2023-08-30T00:24:47;100007.25;;;24.68;45.02
78625;BME280;67944;0.000;0.000;2023-08-30T00:27:13;100016.03;;;24.69;44.95
78625;BME280;67944;0.000;0.000;2023-08-30T00:29:38;100005.63;;;24.67;45.22
78625;BME280;67944;0.000;0.000;2023-08-30T00:32:04;100012.56;;;24.68;44.99
78625;BME280;67944;0.000;0.000;2023-08-30T00:34:29;100005.84;;;24.66;44.51
78625;BME280;67944;0.000;0.000;2023-08-30T00:36:55;100005.03;;;24.65;44.39
78625;BME280;67944;0.000;0.000;2023-08-30T00:39:20;100009.53;;;24.65;45.20
78625;BME280;67944;0.000;0.000;2023-08-30T00:41:46;100006.88;;;24.65;45.25
78625;BME280;67944;0.000;0.000;2023-08-30T00:44:11;100008.72;;;24.64;45.11
78625;BME280;67944;0.000;0.000;2023-08-30T00:46:37;100012.41;;;24.63;44.71
78625;BME280;67944;0.000;0.000;2023-08-30T00:49:04;100009.75;;;24.63;44.94
78625;BME280;67944;0.000;0.000;2023-08-30T00:51:30;100002.78;;;24.62;45.03
78625;BME280;67944;0.000;0.000;2023-08-30T00:53:58;100003.59;;;24.63;45.25
78625;BME280;67944;0.000;0.000;2023-08-30T00:56:25;100008.09;;;24.62;44.64
78625;BME280;67944;0.000;0.000;2023-08-30T00:58:53;99997.47;;;24.62;44.68
78625;BME280;67944;0.000;0.000;2023-08-30T01:01:19;99985.78;;;24.63;45.06
78625;BME280;67944;0.000;0.000;2023-08-30T01:03:45;99991.53;;;24.60;45.06
78625;BME280;67944;0.000;0.000;2023-08-30T01:06:10;99991.16;;;24.56;44.73
78625;BME280;67944;0.000;0.000;2023-08-30T01:08:37;99988.69;;;24.55;45.36
78625;BME280;67944;0.000;0.000;2023-08-30T01:11:18;99990.75;;;24.53;44.87
78625;BME280;67944;0.000;0.000;2023-08-30T01:13:51;99986.47;;;24.52;44.93
78625;BME280;67944;0.000;0.000;2023-08-30T01:16:18;99977.66;;;24.51;44.61
78625;BME280;67944;0.000;0.000;2023-08-30T01:18:47;99976.84;;;24.51;45.45
78625;BME280;67944;0.000;0.000;2023-08-30T01:21:27;99977.28;;;24.48;44.96
78625;BME280;67944;0.000;0.000;2023-08-30T01:23:59;99976.94;;;24.44;44.55
78625;BME280;67944;0.000;0.000;2023-08-30T01:27:05;99978.78;;;24.44;44.90
78625;BME280;67944;0.000;0.000;2023-08-30T01:29:35;99977.56;;;24.40;45.26
78625;BME280;67944;0.000;0.000;2023-08-30T01:32:02;99970.63;;;24.39;44.86
78625;BME280;67944;0.000;0.000;2023-08-30T01:34:29;99967.34;;;24.37;45.52
78625;BME280;67944;0.000;0.000;2023-08-30T01:36:55;99964.09;;;24.35;44.76
78625;BME280;67944;0.000;0.000;2023-08-30T01:39:22;99966.16;;;24.33;45.71
78625;BME280;67944;0.000;0.000;2023-08-30T01:41:49;99962.91;;;24.31;44.84
78625;BME280;67944;0.000;0.000;2023-08-30T01:44:17;99956.97;;;24.29;45.18
78625;BME280;67944;0.000;0.000;2023-08-30T01:46:44;99960.66;;;24.27;45.37
78625;BME280;67944;0.000;0.000;2023-08-30T01:49:12;99956.38;;;24.26;44.96
78625;BME280;67944;0.000;0.000;2023-08-30T01:51:39;99962.72;;;24.25;45.40
78625;BME280;67944;0.000;0.000;2023-08-30T01:54:06;99954.75;;;24.25;45.16
78625;BME280;67944;0.000;0.000;2023-08-30T01:56:34;99953.13;;;24.24;44.68
78625;BME280;67944;0.000;0.000;2023-08-30T01:58:59;99957.81;;;24.22;45.60
78625;BME280;67944;0.000;0.000;2023-08-30T02:01:25;99959.47;;;24.23;45.22
78625;BME280;67944;0.000;0.000;2023-08-30T02:03:50;99960.47;;;24.22;45.05
78625;BME280;67944;0.000;0.000;2023-08-30T02:06:28;99951.69;;;24.22;45.56
78625;BME280;67944;0.000;0.000;2023-08-30T02:09:16;99939.63;;;24.19;45.70
78625;BME280;67944;0.000;0.000;2023-08-30T02:11:45;99948.63;;;24.18;45.77
78625;BME280;67944;0.000;0.000;2023-08-30T02:14:14;99945.38;;;24.16;45.35
78625;BME280;67944;0.000;0.000;2023-08-30T02:16:44;99949.06;;;24.15;45.11
78625;BME280;67944;0.000;0.000;2023-08-30T02:19:11;99952.75;;;24.14;45.43
78625;BME280;67944;0.000;0.000;2023-08-30T02:21:39;99958.06;;;24.14;45.82
78625;BME280;67944;0.000;0.000;2023-08-30T02:24:05;99961.78;;;24.13;45.63
78625;BME280;67944;0.000;0.000;2023-08-30T02:26:30;99951.34;;;24.12;45.02
78625;BME280;67944;0.000;0.000;2023-08-30T02:28:55;99949.72;;;24.11;45.11
78625;BME280;67944;0.000;0.000;2023-08-30T02:31:21;99946.22;;;24.10;45.30
78625;BME280;67944;0.000;0.000;2023-08-30T02:33:46;99950.75;;;24.10;46.06
78625;BME280;67944;0.000;0.000;2023-08-30T02:36:12;99952.59;;;24.09;45.71
78625;BME280;67944;0.000;0.000;2023-08-30T02:38:37;99942.38;;;24.06;45.71
78625;BME280;67944;0.000;0.000;2023-08-30T02:41:03;99946.88;;;24.06;45.83
78625;BME280;67944;0.000;0.000;2023-08-30T02:43:28;99935.63;;;24.04;45.35
78625;BME280;67944;0.000;0.000;2023-08-30T02:45:54;99944.66;;;24.03;45.03
78625;BME280;67944;0.000;0.000;2023-08-30T02:48:20;99946.50;;;24.02;45.73
78625;BME280;67944;0.000;0.000;2023-08-30T02:50:45;99947.53;;;24.01;45.37
78625;BME280;67944;0.000;0.000;2023-08-30T02:53:11;99946.94;;;23.99;46.10
78625;BME280;67944;0.000;0.000;2023-08-30T02:55:36;99948.78;;;23.99;45.67
78625;BME280;67944;0.000;0.000;2023-08-30T02:58:02;99941.84;;;23.98;45.75
78625;BME280;67944;0.000;0.000;2023-08-30T03:00:27;99941.03;;;23.97;45.48
78625;BME280;67944;0.000;0.000;2023-08-30T03:02:53;99936.72;;;23.96;46.10
78625;BME280;67944;0.000;0.000;2023-08-30T03:05:18;99941.44;;;23.94;45.45
78625;BME280;67944;0.000;0.000;2023-08-30T03:07:44;99946.75;;;23.94;46.24
78625;BME280;67944;0.000;0.000;2023-08-30T03:10:11;99956.59;;;23.93;45.92
78625;BME280;67944;0.000;0.000;2023-08-30T03:12:37;99966.41;;;23.93;46.42
78625;BME280;67944;0.000;0.000;2023-08-30T03:15:02;99959.47;;;23.92;45.91
78625;BME280;67944;0.000;0.000;2023-08-30T03:17:29;99966.63;;;23.91;45.47
78625;BME280;67944;0.000;0.000;2023-08-30T03:19:55;99960.09;;;23.87;45.68
78625;BME280;67944;0.000;0.000;2023-08-30T03:22:20;99966.03;;;23.83;46.07
78625;BME280;67944;0.000;0.000;2023-08-30T03:24:46;99961.81;;;23.75;46.60
78625;BME280;67944;0.000;0.000;2023-08-30T03:27:11;99966.94;;;23.70;46.42
78625;BME280;67944;0.000;0.000;2023-08-30T03:29:37;99957.38;;;23.63;46.67
78625;BME280;67944;0.000;0.000;2023-08-30T03:32:02;99961.72;;;23.57;46.51
78625;BME280;67944;0.000;0.000;2023-08-30T03:34:28;99970.31;;;23.52;46.90
78625;BME280;67944;0.000;0.000;2023-08-30T03:36:54;99970.09;;;23.47;46.33
78625;BME280;67944;0.000;0.000;2023-08-30T03:39:20;99963.97;;;23.40;46.27
78625;BME280;67944;0.000;0.000;2023-08-30T03:41:46;99966.47;;;23.35;47.09
78625;BME280;67944;0.000;0.000;2023-08-30T03:44:11;99968.13;;;23.30;47.12
78625;BME280;67944;0.000;0.000;2023-08-30T03:46:37;99967.09;;;23.24;47.16
78625;BME280;67944;0.000;0.000;2023-08-30T03:49:03;99967.13;;;23.17;47.46
78625;BME280;67944;0.000;0.000;2023-08-30T03:51:29;99962.66;;;23.11;47.32
78625;BME280;67944;0.000;0.000;2023-08-30T03:53:54;99961.44;;;23.07;47.57
78625;BME280;67944;0.000;0.000;2023-08-30T03:56:22;99960.44;;;23.02;47.39
78625;BME280;67944;0.000;0.000;2023-08-30T03:58:47;99963.50;;;22.99;47.44
78625;BME280;67944;0.000;0.000;2023-08-30T04:01:13;99966.81;;;22.94;47.93
78625;BME280;67944;0.000;0.000;2023-08-30T04:03:39;99958.44;;;22.90;47.98
78625;BME280;67944;0.000;0.000;2023-08-30T04:06:04;99961.69;;;22.86;48.15
78625;BME280;67944;0.000;0.000;2023-08-30T04:08:30;99966.59;;;22.82;47.99
78625;BME280;67944;0.000;0.000;2023-08-30T04:10:55;99965.16;;;22.80;48.36
78625;BME280;67944;0.000;0.000;2023-08-30T04:13:21;99959.03;;;22.79;48.11
78625;BME280;67944;0.000;0.000;2023-08-30T04:15:47;99962.91;;;22.77;48.25
78625;BME280;67944;0.000;0.000;2023-08-30T04:18:13;99957.78;;;22.75;48.57
78625;BME280;67944;0.000;0.000;2023-08-30T04:20:43;99956.97;;;22.75;48.46
78625;BME280;67944;0.000;0.000;2023-08-30T04:23:09;99951.09;;;22.73;49.05
78625;BME280;67944;0.000;0.000;2023-08-30T04:28:00;99960.69;;;22.67;49.02
78625;BME280;67944;0.000;0.000;2023-08-30T04:30:25;99964.56;;;22.65;48.90
78625;BME280;67944;0.000;0.000;2023-08-30T04:32:51;99961.28;;;22.63;49.37
78625;BME280;67944;0.000;0.000;2023-08-30T04:35:16;99956.19;;;22.61;49.21
78625;BME280;67944;0.000;0.000;2023-08-30T04:37:42;99953.53;;;22.61;49.35
78625;BME280;67944;0.000;0.000;2023-08-30T04:40:08;99954.75;;;22.58;49.45
78625;BME280;67944;0.000;0.000;2023-08-30T04:42:38;99957.19;;;22.60;49.46
78625;BME280;67944;0.000;0.000;2023-08-30T04:45:06;99950.25;;;22.59;49.56
78625;BME280;67944;0.000;0.000;2023-08-30T04:47:32;99953.72;;;22.60;49.64
78625;BME280;67944;0.000;0.000;2023-08-30T04:49:58;99953.72;;;22.60;49.40
78625;BME280;67944;0.000;0.000;2023-08-30T04:52:23;99941.28;;;22.60;49.40
78625;BME280;67944;0.000;0.000;2023-08-30T04:54:48;99941.69;;;22.64;49.59
78625;BME280;67944;0.000;0.000;2023-08-30T04:57:15;99939.44;;;22.67;49.54
78625;BME280;67944;0.000;0.000;2023-08-30T04:59:42;99937.00;;;22.72;49.21
78625;BME280;67944;0.000;0.000;2023-08-30T05:02:07;99946.59;;;22.80;49.89
78625;BME280;67944;0.000;0.000;2023-08-30T05:04:33;99938.00;;;22.84;49.54
78625;BME280;67944;0.000;0.000;2023-08-30T05:06:58;99946.78;;;22.92;49.46
78625;BME280;67944;0.000;0.000;2023-08-30T05:09:24;99942.47;;;22.97;49.56
78625;BME280;67944;0.000;0.000;2023-08-30T05:11:51;99941.22;;;23.00;49.67
78625;BME280;67944;0.000;0.000;2023-08-30T05:14:16;99944.91;;;23.05;49.23
78625;BME280;67944;0.000;0.000;2023-08-30T05:16:42;99946.94;;;23.10;49.37
78625;BME280;67944;0.000;0.000;2023-08-30T05:19:07;99948.34;;;23.12;49.29
78625;BME280;67944;0.000;0.000;2023-08-30T05:21:33;99944.25;;;23.16;49.46
78625;BME280;67944;0.000;0.000;2023-08-30T05:23:58;99942.19;;;23.18;49.34
78625;BME280;67944;0.000;0.000;2023-08-30T05:26:24;99948.09;;;23.20;49.65
78625;BME280;67944;0.000;0.000;2023-08-30T05:28:49;99945.03;;;23.23;49.82
78625;BME280;67944;0.000;0.000;2023-08-30T05:31:15;99946.47;;;23.26;49.23
78625;BME280;67944;0.000;0.000;2023-08-30T05:33:40;99942.56;;;23.29;49.30
78625;BME280;67944;0.000;0.000;2023-08-30T05:36:06;99946.03;;;23.29;49.74
78625;BME280;67944;0.000;0.000;2023-08-30T05:38:31;99942.97;;;23.32;49.18
78625;BME280;67944;0.000;0.000;2023-08-30T05:40:56;99947.88;;;23.35;49.59
78625;BME280;67944;0.000;0.000;2023-08-30T05:43:22;99940.94;;;23.34;49.18
78625;BME280;67944;0.000;0.000;2023-08-30T05:45:47;99943.59;;;23.34;49.53
78625;BME280;67944;0.000;0.000;2023-08-30T05:48:13;99949.72;;;23.35;48.86
78625;BME280;67944;0.000;0.000;2023-08-30T05:50:38;99942.56;;;23.35;49.38
78625;BME280;67944;0.000;0.000;2023-08-30T05:53:04;99948.25;;;23.39;49.40
78625;BME280;67944;0.000;0.000;2023-08-30T05:55:30;99956.81;;;23.41;48.91
78625;BME280;67944;0.000;0.000;2023-08-30T05:57:55;99950.28;;;23.43;49.68
78625;BME280;67944;0.000;0.000;2023-08-30T06:00:22;99955.97;;;23.47;49.39
78625;BME280;67944;0.000;0.000;2023-08-30T06:02:48;99947.81;;;23.48;48.78
78625;BME280;67944;0.000;0.000;2023-08-30T06:05:17;99945.75;;;23.50;49.47
78625;BME280;67944;0.000;0.000;2023-08-30T06:07:43;99954.38;;;23.52;49.06
78625;BME280;67944;0.000;0.000;2023-08-30T06:10:09;99947.81;;;23.55;49.40
78625;BME280;67944;0.000;0.000;2023-08-30T06:12:34;99952.72;;;23.58;49.49
78625;BME280;67944;0.000;0.000;2023-08-30T06:15:00;99955.72;;;23.62;48.90
78625;BME280;67944;0.000;0.000;2023-08-30T06:17:25;99954.28;;;23.66;49.01
78625;BME280;67944;0.000;0.000;2023-08-30T06:19:51;99953.66;;;23.70;49.11
78625;BME280;67944;0.000;0.000;2023-08-30T06:22:17;99958.34;;;23.75;49.01
78625;BME280;67944;0.000;0.000;2023-08-30T06:24:42;99963.22;;;23.78;48.96
78625;BME280;67944;0.000;0.000;2023-08-30T06:27:08;99957.50;;;23.81;48.34
78625;BME280;67944;0.000;0.000;2023-08-30T06:29:33;99957.03;;;23.84;48.42
78625;BME280;67944;0.000;0.000;2023-08-30T06:31:59;99951.50;;;23.85;48.53
78625;BME280;67944;0.000;0.000;2023-08-30T06:34:24;99948.44;;;23.88;49.08
78625;BME280;67944;0.000;0.000;2023-08-30T06:36:50;99949.03;;;23.90;49.02
78625;BME280;67944;0.000;0.000;2023-08-30T06:39:17;99956.78;;;23.92;48.16
78625;BME280;67944;0.000;0.000;2023-08-30T06:41:42;99957.41;;;23.94;48.25
78625;BME280;67944;0.000;0.000;2023-08-30T06:44:08;99959.84;;;23.96;48.64
78625;BME280;67944;0.000;0.000;2023-08-30T06:46:33;99957.78;;;23.98;48.88
78625;BME280;67944;0.000;0.000;2023-08-30T06:48:59;99961.06;;;24.00;48.12
78625;BME280;67944;0.000;0.000;2023-08-30T06:51:24;99959.81;;;24.02;48.60
78625;BME280;67944;0.000;0.000;2023-08-30T06:53:50;99963.03;;;24.04;49.00
78625;BME280;67944;0.000;0.000;2023-08-30T06:56:16;99959.34;;;24.05;48.86
78625;BME280;67944;0.000;0.000;2023-08-30T06:58:41;99954.84;;;24.06;48.68
78625;BME280;67944;0.000;0.000;2023-08-30T07:01:07;99958.94;;;24.08;47.93
78625;BME280;67944;0.000;0.000;2023-08-30T07:03:32;99953.63;;;24.08;48.10
78625;BME280;67944;0.000;0.000;2023-08-30T07:05:58;99954.44;;;24.09;48.43
78625;BME280;67944;0.000;0.000;2023-08-30T07:08:23;99947.47;;;24.08;47.91
78625;BME280;67944;0.000;0.000;2023-08-30T07:10:49;99941.56;;;24.06;48.28
78625;BME280;67944;0.000;0.000;2023-08-30T07:13:14;99944.22;;;24.06;47.93
78625;BME280;67944;0.000;0.000;2023-08-30T07:15:40;99945.84;;;24.07;48.57
78625;BME280;67944;0.000;0.000;2023-08-30T07:18:08;99930.09;;;24.05;48.39
78625;BME280;67944;0.000;0.000;2023-08-30T07:20:33;99928.47;;;24.04;48.87
78625;BME280;67944;0.000;0.000;2023-08-30T07:23:01;99923.75;;;24.06;48.33
78625;BME280;67944;0.000;0.000;2023-08-30T07:25:26;99930.69;;;24.07;48.55
78625;BME280;67944;0.000;0.000;2023-08-30T07:27:51;99929.47;;;24.10;48.10
78625;BME280;67944;0.000;0.000;2023-08-30T07:30:17;99933.53;;;24.12;48.50
78625;BME280;67944;0.000;0.000;2023-08-30T07:32:42;99928.00;;;24.14;48.62
78625;BME280;67944;0.000;0.000;2023-08-30T07:35:08;99931.88;;;24.18;48.33
78625;BME280;67944;0.000;0.000;2023-08-30T07:37:34;99940.22;;;24.21;48.10
78625;BME280;67944;0.000;0.000;2023-08-30T07:40:00;99937.16;;;24.24;48.32
78625;BME280;67944;0.000;0.000;2023-08-30T07:42:26;99933.84;;;24.29;48.40
78625;BME280;67944;0.000;0.000;2023-08-30T07:44:52;99934.22;;;24.33;48.07
78625;BME280;67944;0.000;0.000;2023-08-30T07:47:17;99926.84;;;24.35;47.92
78625;BME280;67944;0.000;0.000;2023-08-30T07:49:43;99930.69;;;24.39;48.27
78625;BME280;67944;0.000;0.000;2023-08-30T07:52:08;99924.56;;;24.38;48.12
78625;BME280;67944;0.000;0.000;2023-08-30T07:54:37;99936.03;;;24.39;48.37
78625;BME280;67944;0.000;0.000;2023-08-30T07:57:03;99931.72;;;24.38;48.18
78625;BME280;67944;0.000;0.000;2023-08-30T07:59:29;99938.69;;;24.39;47.56
78625;BME280;67944;0.000;0.000;2023-08-30T08:01:55;99937.88;;;24.38;48.25
78625;BME280;67944;0.000;0.000;2023-08-30T08:04:21;99939.72;;;24.38;47.65
78625;BME280;67944;0.000;0.000;2023-08-30T08:06:47;99938.69;;;24.39;48.40
78625;BME280;67944;0.000;0.000;2023-08-30T08:09:12;99940.31;;;24.40;47.47
78625;BME280;67944;0.000;0.000;2023-08-30T08:11:38;99939.50;;;24.39;47.55
78625;BME280;67944;0.000;0.000;2023-08-30T08:14:09;99950.16;;;24.39;48.10
78625;BME280;67944;0.000;0.000;2023-08-30T08:16:35;99951.13;;;24.45;48.01
78625;BME280;67944;0.000;0.000;2023-08-30T08:19:00;99946.38;;;24.47;47.87
78625;BME280;67944;0.000;0.000;2023-08-30T08:21:26;99952.09;;;24.50;47.60
78625;BME280;67944;0.000;0.000;2023-08-30T08:23:52;99950.84;;;24.53;47.58
78625;BME280;67944;0.000;0.000;2023-08-30T08:26:18;99953.06;;;24.56;48.39
78625;BME280;67944;0.000;0.000;2023-08-30T08:28:44;99951.00;;;24.58;48.45
78625;BME280;67944;0.000;0.000;2023-08-30T08:31:09;99957.75;;;24.60;47.88
78625;BME280;67944;0.000;0.000;2023-08-30T08:33:35;99954.84;;;24.62;47.45
78625;BME280;67944;0.000;0.000;2023-08-30T08:36:01;99953.41;;;24.66;47.47
78625;BME280;67944;0.000;0.000;2023-08-30T08:38:26;99954.00;;;24.68;48.19
78625;BME280;67944;0.000;0.000;2023-08-30T08:41:01;99951.09;;;24.70;48.09
78625;BME280;67944;0.000;0.000;2023-08-30T08:43:29;99949.00;;;24.72;48.06
78625;BME280;67944;0.000;0.000;2023-08-30T08:45:59;99954.72;;;24.75;47.38
78625;BME280;67944;0.000;0.000;2023-08-30T08:48:28;99950.00;;;24.77;47.87
78625;BME280;67944;0.000;0.000;2023-08-30T08:50:54;99949.78;;;24.79;47.99
78625;BME280;67944;0.000;0.000;2023-08-30T08:53:21;99943.41;;;24.80;47.26
78625;BME280;67944;0.000;0.000;2023-08-30T08:55:48;99952.81;;;24.82;47.33
78625;BME280;67944;0.000;0.000;2023-08-30T08:58:15;99951.56;;;24.85;47.55
78625;BME280;67944;0.000;0.000;2023-08-30T09:00:42;99952.97;;;24.87;47.36
78625;BME280;67944;0.000;0.000;2023-08-30T09:03:09;99945.59;;;24.89;47.59
78625;BME280;67944;0.000;0.000;2023-08-30T09:05:37;99948.00;;;24.91;47.16
78625;BME280;67944;0.000;0.000;2023-08-30T09:08:04;99945.94;;;24.93;47.72
78625;BME280;67944;0.000;0.000;2023-08-30T09:10:31;99943.06;;;24.94;47.52
78625;BME280;67944;0.000;0.000;2023-08-30T09:12:57;99940.78;;;24.98;47.85
78625;BME280;67944;0.000;0.000;2023-08-30T09:15:33;99950.41;;;24.99;47.09
78625;BME280;67944;0.000;0.000;2023-08-30T09:17:59;99949.97;;;25.02;47.83
78625;BME280;67944;0.000;0.000;2023-08-30T09:20:25;99954.03;;;25.05;47.06
78625;BME280;67944;0.000;0.000;2023-08-30T09:22:50;99940.50;;;25.06;46.70
78625;BME280;67944;0.000;0.000;2023-08-30T09:25:24;99942.72;;;25.09;46.79
78625;BME280;67944;0.000;0.000;2023-08-30T09:27:50;99946.78;;;25.12;46.57
78625;BME280;67944;0.000;0.000;2023-08-30T09:30:21;99940.19;;;25.14;46.95
78625;BME280;67944;0.000;0.000;2023-08-30T09:32:47;99936.25;;;25.17;47.30
78625;BME280;67944;0.000;0.000;2023-08-30T09:35:12;99935.22;;;25.18;47.08
78625;BME280;67944;0.000;0.000;2023-08-30T09:37:38;99929.91;;;25.18;46.80
78625;BME280;67944;0.000;0.000;2023-08-30T09:40:04;99930.50;;;25.20;46.58
78625;BME280;67944;0.000;0.000;2023-08-30T09:42:31;99922.50;;;25.20;45.84
78625;BME280;67944;0.000;0.000;2023-08-30T09:44:57;99920.44;;;25.22;46.09
78625;BME280;67944;0.000;0.000;2023-08-30T09:47:26;99914.06;;;25.23;46.25
78625;BME280;67944;0.000;0.000;2023-08-30T09:49:55;99916.72;;;25.23;45.40
78625;BME280;67944;0.000;0.000;2023-08-30T09:52:24;99911.41;;;25.23;46.03
78625;BME280;67944;0.000;0.000;2023-08-30T09:54:51;99907.91;;;25.22;45.84
78625;BME280;67944;0.000;0.000;2023-08-30T09:57:18;99913.84;;;25.24;45.64
78625;BME280;67944;0.000;0.000;2023-08-30T09:59:44;99905.84;;;25.24;44.92
78625;BME280;67944;0.000;0.000;2023-08-30T10:02:11;99913.63;;;25.26;45.70
78625;BME280;67944;0.000;0.000;2023-08-30T10:04:38;99917.91;;;25.27;45.87
78625;BME280;67944;0.000;0.000;2023-08-30T10:07:06;99915.25;;;25.27;45.41
78625;BME280;67944;0.000;0.000;2023-08-30T10:09:32;99909.91;;;25.27;45.35
78625;BME280;67944;0.000;0.000;2023-08-30T10:11:58;99908.50;;;25.24;44.95
78625;BME280;67944;0.000;0.000;2023-08-30T10:14:27;99893.34;;;25.25;44.92
78625;BME280;67944;0.000;0.000;2023-08-30T10:17:01;99889.84;;;25.24;44.78
78625;BME280;67944;0.000;0.000;2023-08-30T10:19:28;99896.00;;;25.25;45.12
78625;BME280;67944;0.000;0.000;2023-08-30T10:22:05;99889.84;;;25.24;44.66
78625;BME280;67944;0.000;0.000;2023-08-30T10:24:41;99886.97;;;25.26;44.09
78625;BME280;67944;0.000;0.000;2023-08-30T10:27:08;99875.50;;;25.25;44.77
78625;BME280;67944;0.000;0.000;2023-08-30T10:29:36;99877.13;;;25.26;43.93
78625;BME280;67944;0.000;0.000;2023-08-30T10:32:05;99872.59;;;25.27;44.70
78625;BME280;67944;0.000;0.000;2023-08-30T10:34:37;99873.19;;;25.29;44.58
78625;BME280;67944;0.000;0.000;2023-08-30T10:37:08;99856.16;;;25.30;44.52
78625;BME280;67944;0.000;0.000;2023-08-30T10:39:38;99855.13;;;25.31;43.82
78625;BME280;67944;0.000;0.000;2023-08-30T10:42:12;99865.31;;;25.34;43.68
78625;BME280;67944;0.000;0.000;2023-08-30T10:44:52;99865.91;;;25.36;43.84
78625;BME280;67944;0.000;0.000;2023-08-30T10:47:18;99859.31;;;25.39;43.68
78625;BME280;67944;0.000;0.000;2023-08-30T10:49:44;99865.22;;;25.41;43.51
78625;BME280;67944;0.000;0.000;2023-08-30T10:52:11;99865.00;;;25.42;43.63
78625;BME280;67944;0.000;0.000;2023-08-30T10:54:37;99867.22;;;25.45;43.27
78625;BME280;67944;0.000;0.000;2023-08-30T10:57:04;99850.19;;;25.46;43.89
78625;BME280;67944;0.000;0.000;2023-08-30T10:59:29;99851.34;;;25.50;43.53
78625;BME280;67944;0.000;0.000;2023-08-30T11:01:55;99846.63;;;25.52;43.37
78625;BME280;67944;0.000;0.000;2023-08-30T11:04:22;99846.41;;;25.54;43.01
78625;BME280;67944;0.000;0.000;2023-08-30T11:06:49;99853.09;;;25.56;43.35
78625;BME280;67944;0.000;0.000;2023-08-30T11:09:17;99842.19;;;25.58;43.09
78625;BME280;67944;0.000;0.000;2023-08-30T11:11:43;99839.09;;;25.61;42.61
78625;BME280;67944;0.000;0.000;2023-08-30T11:14:10;99845.84;;;25.64;42.64
78625;BME280;67944;0.000;0.000;2023-08-30T11:16:36;99842.97;;;25.65;42.33
78625;BME280;67944;0.000;0.000;2023-08-30T11:19:03;99839.03;;;25.68;42.57
78625;BME280;67944;0.000;0.000;2023-08-30T11:21:42;99832.66;;;25.69;42.51
78625;BME280;67944;0.000;0.000;2023-08-30T11:24:09;99838.56;;;25.71;42.51
78625;BME280;67944;0.000;0.000;2023-08-30T11:26:34;99827.44;;;25.74;41.95
78625;BME280;67944;0.000;0.000;2023-08-30T11:29:07;99831.75;;;25.75;42.07
78625;BME280;67944;0.000;0.000;2023-08-30T11:31:33;99833.38;;;25.76;41.61
78625;BME280;67944;0.000;0.000;2023-08-30T11:33:59;99818.97;;;25.77;41.92
78625;BME280;67944;0.000;0.000;2023-08-30T11:36:30;99819.78;;;25.77;41.20
78625;BME280;67944;0.000;0.000;2023-08-30T11:38:57;99816.88;;;25.79;41.93
78625;BME280;67944;0.000;0.000;2023-08-30T11:41:24;99820.13;;;25.81;41.21
78625;BME280;67944;0.000;0.000;2023-08-30T11:43:51;99813.53;;;25.83;41.83
78625;BME280;67944;0.000;0.000;2023-08-30T11:46:18;99813.06;;;25.86;41.45
78625;BME280;67944;0.000;0.000;2023-08-30T11:48:46;99810.16;;;25.88;41.58
78625;BME280;67944;0.000;0.000;2023-08-30T11:51:13;99809.72;;;25.91;41.02
78625;BME280;67944;0.000;0.000;2023-08-30T11:53:39;99808.69;;;25.92;41.15
78625;BME280;67944;0.000;0.000;2023-08-30T11:56:08;99798.59;;;25.94;41.30
78625;BME280;67944;0.000;0.000;2023-08-30T11:58:35;99814.59;;;25.94;41.70
78625;BME280;67944;0.000;0.000;2023-08-30T12:01:01;99815.19;;;25.96;41.11
78625;BME280;67944;0.000;0.000;2023-08-30T12:03:28;99799.16;;;25.96;41.39
78625;BME280;67944;0.000;0.000;2023-08-30T12:05:57;99793.84;;;25.96;40.81
78625;BME280;67944;0.000;0.000;2023-08-30T12:08:24;99798.69;;;25.99;41.44
78625;BME280;67944;0.000;0.000;2023-08-30T12:10:51;99799.84;;;26.03;40.87
78625;BME280;67944;0.000;0.000;2023-08-30T12:13:35;99802.06;;;26.06;40.93
78625;BME280;67944;0.000;0.000;2023-08-30T12:16:01;99800.56;;;26.10;41.29
78625;BME280;67944;0.000;0.000;2023-08-30T12:18:29;99794.75;;;26.13;41.07
78625;BME280;67944;0.000;0.000;2023-08-30T12:21:02;99793.47;;;26.16;40.51
78625;BME280;67944;0.000;0.000;2023-08-30T12:23:30;99787.91;;;26.17;41.11
78625;BME280;67944;0.000;0.000;2023-08-30T12:25:57;99791.38;;;26.18;41.04
78625;BME280;67944;0.000;0.000;2023-08-30T12:28:23;99787.91;;;26.17;41.05
78625;BME280;67944;0.000;0.000;2023-08-30T12:30:48;99786.28;;;26.16;40.75
78625;BME280;67944;0.000;0.000;2023-08-30T12:33:16;99791.63;;;26.16;40.52
78625;BME280;67944;0.000;0.000;2023-08-30T12:35:41;99783.63;;;26.16;40.53
78625;BME280;67944;0.000;0.000;2023-08-30T12:38:07;99785.47;;;26.16;40.81
78625;BME280;67944;0.000;0.000;2023-08-30T12:40:35;99782.00;;;26.15;40.64
78625;BME280;67944;0.000;0.000;2023-08-30T12:43:01;99787.31;;;26.15;40.21
78625;BME280;67944;0.000;0.000;2023-08-30T12:45:26;99785.47;;;26.16;40.09
78625;BME280;67944;0.000;0.000;2023-08-30T12:47:52;99773.97;;;26.15;39.84
78625;BME280;67944;0.000;0.000;2023-08-30T12:50:17;99769.47;;;26.16;40.42
78625;BME280;67944;0.000;0.000;2023-08-30T12:52:43;99774.56;;;26.17;40.14
78625;BME280;67944;0.000;0.000;2023-08-30T12:55:08;99772.72;;;26.18;40.80
78625;BME280;67944;0.000;0.000;2023-08-30T12:57:33;99772.72;;;26.18;40.66
78625;BME280;67944;0.000;0.000;2023-08-30T12:59:59;99773.53;;;26.18;40.09
78625;BME280;67944;0.000;0.000;2023-08-30T13:02:25;99772.72;;;26.18;40.14
78625;BME280;67944;0.000;0.000;2023-08-30T13:04:50;99768.41;;;26.17;40.46
78625;BME280;67944;0.000;0.000;2023-08-30T13:07:15;99772.72;;;26.18;40.15
78625;BME280;67944;0.000;0.000;2023-08-30T13:09:41;99757.50;;;26.18;39.51